sensor_id;sensor_type;location;lat;lon;timestamp;P1;durP1;ratioP1;P2;durP2;ratioP2
54787;SDS011;59598;48.112;16.280;2023-04-08T00:01:18;34.10;;;19.10;;
54787;SDS011;59598;48.112;16.280;2023-04-08T00:03:50;31.50;;;19.42;;
54787;SDS011;59598;48.112;16.280;2023-04-08T00:06:21;30.90;;;18.75;;
54787;SDS011;59598;48.112;16.280;2023-04-08T00:08:52;30.45;;;19.25;;
54787;SDS011;59598;48.112;16.280;2023-04-08T00:11:26;33.30;;;19.40;;
54787;SDS011;59598;48.112;16.280;2023-04-08T00:14:03;29.50;;;18.23;;
54787;SDS011;59598;48.112;16.280;2023-04-08T00:16:34;33.08;;;19.70;;
54787;SDS011;59598;48.112;16.280;2023-04-08T00:19:06;33.85;;;20.05;;
54787;SDS011;59598;48.112;16.280;2023-04-08T00:24:16;31.83;;;19.23;;
54787;SDS011;59598;48.112;16.280;2023-04-08T00:26:47;32.45;;;19.13;;
54787;SDS011;59598;48.112;16.280;2023-04-08T00:29:19;29.85;;;18.83;;
54787;SDS011;59598;48.112;16.280;2023-04-08T00:31:50;33.28;;;19.27;;
54787;SDS011;59598;48.112;16.280;2023-04-08T00:34:22;36.25;;;18.27;;
54787;SDS011;59598;48.112;16.280;2023-04-08T00:36:53;28.23;;;17.40;;
54787;SDS011;59598;48.112;16.280;2023-04-08T00:39:25;30.13;;;18.10;;
54787;SDS011;59598;48.112;16.280;2023-04-08T00:41:57;28.52;;;16.65;;
54787;SDS011;59598;48.112;16.280;2023-04-08T00:44:31;28.73;;;16.20;;
54787;SDS011;59598;48.112;16.280;2023-04-08T00:47:02;21.70;;;12.70;;
54787;SDS011;59598;48.112;16.280;2023-04-08T00:49:36;23.08;;;12.55;;
54787;SDS011;59598;48.112;16.280;2023-04-08T00:52:11;17.73;;;10.38;;
54787;SDS011;59598;48.112;16.280;2023-04-08T00:54:42;19.63;;;11.50;;
54787;SDS011;59598;48.112;16.280;2023-04-08T00:57:14;20.00;;;10.85;;
54787;SDS011;59598;48.112;16.280;2023-04-08T00:59:48;21.95;;;11.00;;
54787;SDS011;59598;48.112;16.280;2023-04-08T01:02:29;25.92;;;10.32;;
54787;SDS011;59598;48.112;16.280;2023-04-08T01:05:19;18.20;;;9.32;;
54787;SDS011;59598;48.112;16.280;2023-04-08T01:08:10;14.57;;;8.90;;
54787;SDS011;59598;48.112;16.280;2023-04-08T01:10:48;14.57;;;8.18;;
54787;SDS011;59598;48.112;16.280;2023-04-08T01:13:26;13.65;;;7.85;;
54787;SDS011;59598;48.112;16.280;2023-04-08T01:16:00;14.95;;;7.78;;
54787;SDS011;59598;48.112;16.280;2023-04-08T01:18:34;11.55;;;6.35;;
54787;SDS011;59598;48.112;16.280;2023-04-08T01:23:53;10.77;;;6.80;;
54787;SDS011;59598;48.112;16.280;2023-04-08T01:26:30;10.77;;;7.03;;
54787;SDS011;59598;48.112;16.280;2023-04-08T01:29:02;10.55;;;6.95;;
54787;SDS011;59598;48.112;16.280;2023-04-08T01:31:37;9.00;;;6.65;;
54787;SDS011;59598;48.112;16.280;2023-04-08T01:34:12;12.02;;;7.35;;
54787;SDS011;59598;48.112;16.280;2023-04-08T01:36:45;10.70;;;6.55;;
54787;SDS011;59598;48.112;16.280;2023-04-08T01:39:22;10.10;;;6.40;;
54787;SDS011;59598;48.112;16.280;2023-04-08T01:41:57;10.88;;;6.05;;
54787;SDS011;59598;48.112;16.280;2023-04-08T01:44:34;12.10;;;6.80;;
54787;SDS011;59598;48.112;16.280;2023-04-08T01:47:09;12.85;;;6.75;;
54787;SDS011;59598;48.112;16.280;2023-04-08T01:49:43;9.52;;;5.45;;
54787;SDS011;59598;48.112;16.280;2023-04-08T01:52:19;10.90;;;6.28;;
54787;SDS011;59598;48.112;16.280;2023-04-08T01:54:52;9.95;;;6.50;;
54787;SDS011;59598;48.112;16.280;2023-04-08T01:57:23;11.05;;;6.38;;
54787;SDS011;59598;48.112;16.280;2023-04-08T01:59:59;8.18;;;5.38;;
54787;SDS011;59598;48.112;16.280;2023-04-08T02:02:37;9.75;;;5.43;;
54787;SDS011;59598;48.112;16.280;2023-04-08T02:05:14;9.32;;;5.65;;
54787;SDS011;59598;48.112;16.280;2023-04-08T02:10:20;8.10;;;4.82;;
54787;SDS011;59598;48.112;16.280;2023-04-08T02:12:51;8.73;;;6.03;;
54787;SDS011;59598;48.112;16.280;2023-04-08T02:15:25;8.10;;;5.57;;
54787;SDS011;59598;48.112;16.280;2023-04-08T02:18:08;13.13;;;6.38;;
54787;SDS011;59598;48.112;16.280;2023-04-08T02:21:18;7.78;;;4.70;;
54787;SDS011;59598;48.112;16.280;2023-04-08T02:23:46;7.80;;;5.20;;
54787;SDS011;59598;48.112;16.280;2023-04-08T02:26:21;9.93;;;5.53;;
54787;SDS011;59598;48.112;16.280;2023-04-08T02:28:53;9.20;;;6.20;;
54787;SDS011;59598;48.112;16.280;2023-04-08T02:31:26;8.82;;;5.63;;
54787;SDS011;59598;48.112;16.280;2023-04-08T02:34:00;6.53;;;4.68;;
54787;SDS011;59598;48.112;16.280;2023-04-08T02:36:35;8.90;;;5.40;;
54787;SDS011;59598;48.112;16.280;2023-04-08T02:39:12;8.05;;;5.22;;
54787;SDS011;59598;48.112;16.280;2023-04-08T02:41:46;6.75;;;4.32;;
54787;SDS011;59598;48.112;16.280;2023-04-08T02:44:22;7.30;;;5.25;;
54787;SDS011;59598;48.112;16.280;2023-04-08T02:46:54;6.78;;;4.68;;
54787;SDS011;59598;48.112;16.280;2023-04-08T02:49:32;7.32;;;4.60;;
54787;SDS011;59598;48.112;16.280;2023-04-08T02:52:06;6.22;;;3.70;;
54787;SDS011;59598;48.112;16.280;2023-04-08T02:54:40;5.23;;;3.70;;
54787;SDS011;59598;48.112;16.280;2023-04-08T02:57:14;7.07;;;4.57;;
54787;SDS011;59598;48.112;16.280;2023-04-08T02:59:50;5.88;;;4.10;;
54787;SDS011;59598;48.112;16.280;2023-04-08T03:02:24;6.68;;;3.83;;
54787;SDS011;59598;48.112;16.280;2023-04-08T03:04:58;9.00;;;4.63;;
54787;SDS011;59598;48.112;16.280;2023-04-08T03:07:29;5.82;;;4.55;;
54787;SDS011;59598;48.112;16.280;2023-04-08T03:12:38;6.60;;;4.78;;
54787;SDS011;59598;48.112;16.280;2023-04-08T03:15:13;17.60;;;4.68;;
54787;SDS011;59598;48.112;16.280;2023-04-08T03:17:45;6.88;;;4.47;;
54787;SDS011;59598;48.112;16.280;2023-04-08T03:20:27;5.68;;;4.05;;
54787;SDS011;59598;48.112;16.280;2023-04-08T03:22:58;6.70;;;4.15;;
54787;SDS011;59598;48.112;16.280;2023-04-08T03:25:31;6.35;;;4.45;;
54787;SDS011;59598;48.112;16.280;2023-04-08T03:28:07;6.47;;;4.07;;
54787;SDS011;59598;48.112;16.280;2023-04-08T03:30:38;5.75;;;3.88;;
54787;SDS011;59598;48.112;16.280;2023-04-08T03:33:12;5.77;;;3.93;;
54787;SDS011;59598;48.112;16.280;2023-04-08T03:35:43;6.45;;;4.25;;
54787;SDS011;59598;48.112;16.280;2023-04-08T03:38:14;4.80;;;3.30;;
54787;SDS011;59598;48.112;16.280;2023-04-08T03:40:47;7.43;;;4.27;;
54787;SDS011;59598;48.112;16.280;2023-04-08T03:43:23;6.30;;;4.03;;
54787;SDS011;59598;48.112;16.280;2023-04-08T03:45:55;4.85;;;3.85;;
54787;SDS011;59598;48.112;16.280;2023-04-08T03:48:29;5.93;;;4.07;;
54787;SDS011;59598;48.112;16.280;2023-04-08T03:51:02;6.53;;;4.38;;
54787;SDS011;59598;48.112;16.280;2023-04-08T03:53:34;8.43;;;4.47;;
54787;SDS011;59598;48.112;16.280;2023-04-08T03:56:07;5.65;;;3.83;;
54787;SDS011;59598;48.112;16.280;2023-04-08T03:58:41;6.22;;;4.13;;
54787;SDS011;59598;48.112;16.280;2023-04-08T04:01:16;5.45;;;3.53;;
54787;SDS011;59598;48.112;16.280;2023-04-08T04:03:47;7.05;;;3.78;;
54787;SDS011;59598;48.112;16.280;2023-04-08T04:06:19;6.03;;;3.80;;
54787;SDS011;59598;48.112;16.280;2023-04-08T04:08:52;5.95;;;4.05;;
54787;SDS011;59598;48.112;16.280;2023-04-08T04:11:24;5.95;;;4.10;;
54787;SDS011;59598;48.112;16.280;2023-04-08T04:14:00;6.33;;;4.17;;
54787;SDS011;59598;48.112;16.280;2023-04-08T04:16:31;8.07;;;3.92;;
54787;SDS011;59598;48.112;16.280;2023-04-08T04:19:05;5.57;;;3.95;;
54787;SDS011;59598;48.112;16.280;2023-04-08T04:21:38;6.53;;;4.40;;
54787;SDS011;59598;48.112;16.280;2023-04-08T04:24:09;5.38;;;4.35;;
54787;SDS011;59598;48.112;16.280;2023-04-08T04:26:40;6.70;;;4.32;;
54787;SDS011;59598;48.112;16.280;2023-04-08T04:29:14;6.57;;;3.50;;
54787;SDS011;59598;48.112;16.280;2023-04-08T04:31:45;6.88;;;4.05;;
54787;SDS011;59598;48.112;16.280;2023-04-08T04:34:17;6.35;;;3.90;;
54787;SDS011;59598;48.112;16.280;2023-04-08T04:36:54;5.53;;;3.97;;
54787;SDS011;59598;48.112;16.280;2023-04-08T04:41:57;5.82;;;3.95;;
54787;SDS011;59598;48.112;16.280;2023-04-08T04:44:33;5.57;;;3.38;;
54787;SDS011;59598;48.112;16.280;2023-04-08T04:47:04;8.15;;;4.57;;
54787;SDS011;59598;48.112;16.280;2023-04-08T04:49:35;6.65;;;4.50;;
54787;SDS011;59598;48.112;16.280;2023-04-08T04:52:09;5.68;;;4.38;;
54787;SDS011;59598;48.112;16.280;2023-04-08T04:54:41;6.35;;;3.85;;
54787;SDS011;59598;48.112;16.280;2023-04-08T04:57:14;6.47;;;4.20;;
54787;SDS011;59598;48.112;16.280;2023-04-08T04:59:45;7.18;;;4.40;;
54787;SDS011;59598;48.112;16.280;2023-04-08T05:02:19;5.47;;;3.85;;
54787;SDS011;59598;48.112;16.280;2023-04-08T05:04:53;5.20;;;4.10;;
54787;SDS011;59598;48.112;16.280;2023-04-08T05:07:26;6.07;;;3.97;;
54787;SDS011;59598;48.112;16.280;2023-04-08T05:10:05;6.38;;;3.90;;
54787;SDS011;59598;48.112;16.280;2023-04-08T05:12:41;5.90;;;4.15;;
54787;SDS011;59598;48.112;16.280;2023-04-08T05:15:13;6.68;;;4.65;;
54787;SDS011;59598;48.112;16.280;2023-04-08T05:17:46;8.02;;;4.80;;
54787;SDS011;59598;48.112;16.280;2023-04-08T05:20:20;5.43;;;4.55;;
54787;SDS011;59598;48.112;16.280;2023-04-08T05:22:53;6.50;;;4.78;;
54787;SDS011;59598;48.112;16.280;2023-04-08T05:25:30;5.57;;;3.72;;
54787;SDS011;59598;48.112;16.280;2023-04-08T05:28:03;4.15;;;3.38;;
54787;SDS011;59598;48.112;16.280;2023-04-08T05:30:37;5.32;;;3.95;;
54787;SDS011;59598;48.112;16.280;2023-04-08T05:33:08;4.55;;;3.47;;
54787;SDS011;59598;48.112;16.280;2023-04-08T05:35:42;11.88;;;5.30;;
54787;SDS011;59598;48.112;16.280;2023-04-08T05:38:14;12.32;;;6.10;;
54787;SDS011;59598;48.112;16.280;2023-04-08T05:40:45;7.00;;;5.50;;
54787;SDS011;59598;48.112;16.280;2023-04-08T05:43:16;5.47;;;3.63;;
54787;SDS011;59598;48.112;16.280;2023-04-08T05:45:48;7.20;;;4.82;;
54787;SDS011;59598;48.112;16.280;2023-04-08T05:48:22;5.28;;;4.07;;
54787;SDS011;59598;48.112;16.280;2023-04-08T05:50:53;4.55;;;3.15;;
54787;SDS011;59598;48.112;16.280;2023-04-08T05:53:28;5.57;;;3.63;;
54787;SDS011;59598;48.112;16.280;2023-04-08T05:56:04;4.28;;;3.25;;
54787;SDS011;59598;48.112;16.280;2023-04-08T05:58:36;3.67;;;3.05;;
54787;SDS011;59598;48.112;16.280;2023-04-08T06:01:07;4.38;;;3.38;;
54787;SDS011;59598;48.112;16.280;2023-04-08T06:03:38;4.38;;;3.47;;
54787;SDS011;59598;48.112;16.280;2023-04-08T06:06:12;4.28;;;3.30;;
54787;SDS011;59598;48.112;16.280;2023-04-08T06:08:45;5.05;;;3.78;;
54787;SDS011;59598;48.112;16.280;2023-04-08T06:11:20;4.90;;;3.92;;
54787;SDS011;59598;48.112;16.280;2023-04-08T06:13:51;6.50;;;4.25;;
54787;SDS011;59598;48.112;16.280;2023-04-08T06:16:25;5.85;;;4.00;;
54787;SDS011;59598;48.112;16.280;2023-04-08T06:18:57;5.70;;;3.72;;
54787;SDS011;59598;48.112;16.280;2023-04-08T06:21:31;6.13;;;3.97;;
54787;SDS011;59598;48.112;16.280;2023-04-08T06:24:02;5.35;;;3.42;;
54787;SDS011;59598;48.112;16.280;2023-04-08T06:26:41;5.35;;;3.88;;
54787;SDS011;59598;48.112;16.280;2023-04-08T06:29:15;7.20;;;4.47;;
54787;SDS011;59598;48.112;16.280;2023-04-08T06:31:46;5.45;;;3.92;;
54787;SDS011;59598;48.112;16.280;2023-04-08T06:34:23;7.13;;;4.10;;
54787;SDS011;59598;48.112;16.280;2023-04-08T06:36:56;6.77;;;4.63;;
54787;SDS011;59598;48.112;16.280;2023-04-08T06:39:28;7.35;;;4.25;;
54787;SDS011;59598;48.112;16.280;2023-04-08T06:42:04;6.93;;;4.43;;
54787;SDS011;59598;48.112;16.280;2023-04-08T06:44:38;5.88;;;4.07;;
54787;SDS011;59598;48.112;16.280;2023-04-08T06:47:09;6.15;;;4.43;;
54787;SDS011;59598;48.112;16.280;2023-04-08T06:49:43;5.97;;;4.32;;
54787;SDS011;59598;48.112;16.280;2023-04-08T06:52:14;7.45;;;5.20;;
54787;SDS011;59598;48.112;16.280;2023-04-08T06:54:46;8.35;;;5.10;;
54787;SDS011;59598;48.112;16.280;2023-04-08T06:57:23;6.50;;;4.68;;
54787;SDS011;59598;48.112;16.280;2023-04-08T06:59:54;8.90;;;5.55;;
54787;SDS011;59598;48.112;16.280;2023-04-08T07:02:28;9.02;;;6.07;;
54787;SDS011;59598;48.112;16.280;2023-04-08T07:04:59;7.82;;;5.68;;
54787;SDS011;59598;48.112;16.280;2023-04-08T07:07:31;9.00;;;5.55;;
54787;SDS011;59598;48.112;16.280;2023-04-08T07:10:02;9.68;;;6.72;;
54787;SDS011;59598;48.112;16.280;2023-04-08T07:12:33;9.52;;;6.55;;
54787;SDS011;59598;48.112;16.280;2023-04-08T07:15:07;10.02;;;6.70;;
54787;SDS011;59598;48.112;16.280;2023-04-08T07:17:41;9.82;;;6.85;;
54787;SDS011;59598;48.112;16.280;2023-04-08T07:20:12;9.63;;;6.22;;
54787;SDS011;59598;48.112;16.280;2023-04-08T07:22:48;8.05;;;5.47;;
54787;SDS011;59598;48.112;16.280;2023-04-08T07:27:53;6.47;;;5.28;;
54787;SDS011;59598;48.112;16.280;2023-04-08T07:30:24;8.02;;;5.22;;
54787;SDS011;59598;48.112;16.280;2023-04-08T07:32:55;8.98;;;6.30;;
54787;SDS011;59598;48.112;16.280;2023-04-08T07:35:30;7.68;;;5.55;;
54787;SDS011;59598;48.112;16.280;2023-04-08T07:38:03;5.90;;;4.40;;
54787;SDS011;59598;48.112;16.280;2023-04-08T07:40:38;4.88;;;3.70;;
54787;SDS011;59598;48.112;16.280;2023-04-08T07:43:12;6.07;;;4.63;;
54787;SDS011;59598;48.112;16.280;2023-04-08T07:45:44;5.80;;;4.47;;
54787;SDS011;59598;48.112;16.280;2023-04-08T07:48:16;7.03;;;4.22;;
54787;SDS011;59598;48.112;16.280;2023-04-08T07:50:47;4.95;;;3.63;;
54787;SDS011;59598;48.112;16.280;2023-04-08T07:53:18;5.38;;;3.95;;
54787;SDS011;59598;48.112;16.280;2023-04-08T07:55:49;5.10;;;4.13;;
54787;SDS011;59598;48.112;16.280;2023-04-08T07:58:23;5.07;;;4.15;;
54787;SDS011;59598;48.112;16.280;2023-04-08T08:01:01;6.55;;;4.43;;
54787;SDS011;59598;48.112;16.280;2023-04-08T08:03:35;4.53;;;3.63;;
54787;SDS011;59598;48.112;16.280;2023-04-08T08:06:06;5.07;;;3.92;;
54787;SDS011;59598;48.112;16.280;2023-04-08T08:08:40;5.60;;;3.95;;
54787;SDS011;59598;48.112;16.280;2023-04-08T08:11:16;5.25;;;3.42;;
54787;SDS011;59598;48.112;16.280;2023-04-08T08:13:52;6.18;;;3.75;;
54787;SDS011;59598;48.112;16.280;2023-04-08T08:16:26;5.50;;;4.25;;
54787;SDS011;59598;48.112;16.280;2023-04-08T08:19:03;6.00;;;4.13;;
54787;SDS011;59598;48.112;16.280;2023-04-08T08:21:38;5.38;;;4.38;;
54787;SDS011;59598;48.112;16.280;2023-04-08T08:24:09;7.75;;;4.53;;
54787;SDS011;59598;48.112;16.280;2023-04-08T08:26:41;5.40;;;4.00;;
54787;SDS011;59598;48.112;16.280;2023-04-08T08:29:19;5.78;;;4.35;;
54787;SDS011;59598;48.112;16.280;2023-04-08T08:31:58;4.82;;;3.80;;
54787;SDS011;59598;48.112;16.280;2023-04-08T08:34:33;4.18;;;3.33;;
54787;SDS011;59598;48.112;16.280;2023-04-08T08:37:07;6.13;;;4.07;;
54787;SDS011;59598;48.112;16.280;2023-04-08T08:39:38;6.15;;;4.20;;
54787;SDS011;59598;48.112;16.280;2023-04-08T08:42:20;8.02;;;4.15;;
54787;SDS011;59598;48.112;16.280;2023-04-08T08:44:52;6.43;;;4.40;;
54787;SDS011;59598;48.112;16.280;2023-04-08T08:47:26;5.45;;;4.03;;
54787;SDS011;59598;48.112;16.280;2023-04-08T08:50:00;5.60;;;4.05;;
54787;SDS011;59598;48.112;16.280;2023-04-08T08:52:32;6.88;;;4.40;;
54787;SDS011;59598;48.112;16.280;2023-04-08T08:55:04;8.48;;;4.35;;
54787;SDS011;59598;48.112;16.280;2023-04-08T08:57:36;6.25;;;4.38;;
54787;SDS011;59598;48.112;16.280;2023-04-08T09:00:09;5.57;;;4.72;;
54787;SDS011;59598;48.112;16.280;2023-04-08T09:02:45;6.43;;;4.20;;
54787;SDS011;59598;48.112;16.280;2023-04-08T09:07:58;5.40;;;3.95;;
54787;SDS011;59598;48.112;16.280;2023-04-08T09:10:30;9.18;;;4.43;;
54787;SDS011;59598;48.112;16.280;2023-04-08T09:13:03;5.95;;;4.60;;
54787;SDS011;59598;48.112;16.280;2023-04-08T09:15:43;9.90;;;5.77;;
54787;SDS011;59598;48.112;16.280;2023-04-08T09:18:35;5.97;;;4.13;;
54787;SDS011;59598;48.112;16.280;2023-04-08T09:21:13;8.25;;;4.65;;
54787;SDS011;59598;48.112;16.280;2023-04-08T09:23:47;6.32;;;4.13;;
54787;SDS011;59598;48.112;16.280;2023-04-08T09:26:21;6.65;;;4.40;;
54787;SDS011;59598;48.112;16.280;2023-04-08T09:31:40;9.27;;;5.07;;
54787;SDS011;59598;48.112;16.280;2023-04-08T09:34:15;7.00;;;4.70;;
54787;SDS011;59598;48.112;16.280;2023-04-08T09:36:52;7.53;;;5.00;;
54787;SDS011;59598;48.112;16.280;2023-04-08T09:39:27;7.13;;;4.50;;
54787;SDS011;59598;48.112;16.280;2023-04-08T09:41:58;6.70;;;4.68;;
54787;SDS011;59598;48.112;16.280;2023-04-08T09:44:36;9.90;;;5.20;;
54787;SDS011;59598;48.112;16.280;2023-04-08T09:47:16;7.55;;;5.47;;
54787;SDS011;59598;48.112;16.280;2023-04-08T09:49:54;9.20;;;6.05;;
54787;SDS011;59598;48.112;16.280;2023-04-08T09:52:32;7.97;;;5.10;;
54787;SDS011;59598;48.112;16.280;2023-04-08T09:55:12;7.88;;;5.20;;
54787;SDS011;59598;48.112;16.280;2023-04-08T10:00:39;7.80;;;4.60;;
54787;SDS011;59598;48.112;16.280;2023-04-08T10:03:28;6.45;;;4.55;;
54787;SDS011;59598;48.112;16.280;2023-04-08T10:06:12;7.22;;;5.57;;
54787;SDS011;59598;48.112;16.280;2023-04-08T10:08:51;7.05;;;4.57;;
54787;SDS011;59598;48.112;16.280;2023-04-08T10:11:25;8.75;;;5.53;;
54787;SDS011;59598;48.112;16.280;2023-04-08T10:14:02;8.07;;;5.28;;
54787;SDS011;59598;48.112;16.280;2023-04-08T10:16:34;6.72;;;4.68;;
54787;SDS011;59598;48.112;16.280;2023-04-08T10:27:47;7.75;;;5.75;;
54787;SDS011;59598;48.112;16.280;2023-04-08T10:33:08;9.30;;;6.65;;
54787;SDS011;59598;48.112;16.280;2023-04-08T10:35:47;7.82;;;5.10;;
54787;SDS011;59598;48.112;16.280;2023-04-08T10:38:22;8.30;;;5.35;;
54787;SDS011;59598;48.112;16.280;2023-04-08T10:40:56;8.63;;;6.13;;
54787;SDS011;59598;48.112;16.280;2023-04-08T10:43:33;8.05;;;5.32;;
54787;SDS011;59598;48.112;16.280;2023-04-08T10:46:06;7.72;;;5.43;;
54787;SDS011;59598;48.112;16.280;2023-04-08T10:48:40;7.18;;;5.15;;
54787;SDS011;59598;48.112;16.280;2023-04-08T10:51:14;9.90;;;6.72;;
54787;SDS011;59598;48.112;16.280;2023-04-08T10:53:48;9.35;;;5.63;;
54787;SDS011;59598;48.112;16.280;2023-04-08T10:56:22;6.47;;;4.57;;
54787;SDS011;59598;48.112;16.280;2023-04-08T10:58:54;8.65;;;5.18;;
54787;SDS011;59598;48.112;16.280;2023-04-08T11:01:26;7.35;;;4.57;;
54787;SDS011;59598;48.112;16.280;2023-04-08T11:03:57;6.55;;;4.90;;
54787;SDS011;59598;48.112;16.280;2023-04-08T11:06:40;8.20;;;5.07;;
54787;SDS011;59598;48.112;16.280;2023-04-08T11:09:16;8.52;;;5.60;;
54787;SDS011;59598;48.112;16.280;2023-04-08T11:11:47;6.80;;;4.55;;
54787;SDS011;59598;48.112;16.280;2023-04-08T11:14:21;9.23;;;5.22;;
54787;SDS011;59598;48.112;16.280;2023-04-08T11:16:54;7.43;;;4.80;;
54787;SDS011;59598;48.112;16.280;2023-04-08T11:19:26;8.07;;;5.63;;
54787;SDS011;59598;48.112;16.280;2023-04-08T11:22:01;8.70;;;5.22;;
54787;SDS011;59598;48.112;16.280;2023-04-08T11:24:35;6.93;;;4.28;;
54787;SDS011;59598;48.112;16.280;2023-04-08T11:27:09;8.05;;;4.60;;
54787;SDS011;59598;48.112;16.280;2023-04-08T11:29:45;7.50;;;5.22;;
54787;SDS011;59598;48.112;16.280;2023-04-08T11:32:20;7.82;;;5.35;;
54787;SDS011;59598;48.112;16.280;2023-04-08T11:34:55;6.10;;;4.95;;
54787;SDS011;59598;48.112;16.280;2023-04-08T11:37:37;7.00;;;4.07;;
54787;SDS011;59598;48.112;16.280;2023-04-08T11:40:12;6.70;;;4.55;;
54787;SDS011;59598;48.112;16.280;2023-04-08T11:42:49;6.53;;;4.35;;
54787;SDS011;59598;48.112;16.280;2023-04-08T11:47:57;6.53;;;4.75;;
54787;SDS011;59598;48.112;16.280;2023-04-08T11:50:28;10.55;;;6.25;;
54787;SDS011;59598;48.112;16.280;2023-04-08T11:53:03;9.68;;;5.80;;
54787;SDS011;59598;48.112;16.280;2023-04-08T11:55:45;10.80;;;5.90;;
54787;SDS011;59598;48.112;16.280;2023-04-08T12:00:51;9.18;;;6.38;;
54787;SDS011;59598;48.112;16.280;2023-04-08T12:03:23;9.68;;;5.97;;
54787;SDS011;59598;48.112;16.280;2023-04-08T12:05:54;8.80;;;5.38;;
54787;SDS011;59598;48.112;16.280;2023-04-08T12:08:27;11.32;;;6.47;;
54787;SDS011;59598;48.112;16.280;2023-04-08T12:11:01;11.85;;;7.03;;
54787;SDS011;59598;48.112;16.280;2023-04-08T12:13:32;10.80;;;6.32;;
54787;SDS011;59598;48.112;16.280;2023-04-08T12:16:04;12.15;;;6.25;;
54787;SDS011;59598;48.112;16.280;2023-04-08T12:18:36;11.68;;;6.05;;
54787;SDS011;59598;48.112;16.280;2023-04-08T12:21:09;11.20;;;7.18;;
54787;SDS011;59598;48.112;16.280;2023-04-08T12:23:45;13.57;;;6.72;;
54787;SDS011;59598;48.112;16.280;2023-04-08T12:26:17;11.75;;;7.22;;
54787;SDS011;59598;48.112;16.280;2023-04-08T12:28:56;11.13;;;7.45;;
54787;SDS011;59598;48.112;16.280;2023-04-08T12:31:28;12.90;;;7.22;;
54787;SDS011;59598;48.112;16.280;2023-04-08T12:33:59;13.25;;;7.63;;
54787;SDS011;59598;48.112;16.280;2023-04-08T12:36:30;12.90;;;6.50;;
54787;SDS011;59598;48.112;16.280;2023-04-08T12:39:03;13.20;;;8.23;;
54787;SDS011;59598;48.112;16.280;2023-04-08T12:41:34;12.10;;;6.85;;
54787;SDS011;59598;48.112;16.280;2023-04-08T12:44:05;11.38;;;6.65;;
54787;SDS011;59598;48.112;16.280;2023-04-08T12:46:39;11.93;;;7.68;;
54787;SDS011;59598;48.112;16.280;2023-04-08T12:49:13;16.27;;;7.97;;
54787;SDS011;59598;48.112;16.280;2023-04-08T12:51:44;13.02;;;6.75;;
54787;SDS011;59598;48.112;16.280;2023-04-08T12:54:18;12.25;;;6.60;;
54787;SDS011;59598;48.112;16.280;2023-04-08T12:56:50;11.60;;;6.70;;
54787;SDS011;59598;48.112;16.280;2023-04-08T12:59:26;9.57;;;6.15;;
54787;SDS011;59598;48.112;16.280;2023-04-08T13:02:00;9.90;;;6.38;;
54787;SDS011;59598;48.112;16.280;2023-04-08T13:04:31;12.40;;;6.17;;
54787;SDS011;59598;48.112;16.280;2023-04-08T13:07:02;8.25;;;5.60;;
54787;SDS011;59598;48.112;16.280;2023-04-08T13:09:39;10.05;;;6.93;;
54787;SDS011;59598;48.112;16.280;2023-04-08T13:12:12;11.02;;;6.72;;
54787;SDS011;59598;48.112;16.280;2023-04-08T13:14:50;12.48;;;6.80;;
54787;SDS011;59598;48.112;16.280;2023-04-08T13:17:29;12.00;;;6.47;;
54787;SDS011;59598;48.112;16.280;2023-04-08T13:20:05;10.50;;;6.03;;
54787;SDS011;59598;48.112;16.280;2023-04-08T13:22:39;11.82;;;6.97;;
54787;SDS011;59598;48.112;16.280;2023-04-08T13:25:10;10.15;;;5.88;;
54787;SDS011;59598;48.112;16.280;2023-04-08T13:27:47;12.98;;;7.78;;
54787;SDS011;59598;48.112;16.280;2023-04-08T13:30:21;12.45;;;7.70;;
54787;SDS011;59598;48.112;16.280;2023-04-08T13:32:54;12.38;;;7.38;;
54787;SDS011;59598;48.112;16.280;2023-04-08T13:35:26;9.70;;;6.38;;
54787;SDS011;59598;48.112;16.280;2023-04-08T13:38:04;12.20;;;6.97;;
54787;SDS011;59598;48.112;16.280;2023-04-08T13:40:38;12.52;;;7.13;;
54787;SDS011;59598;48.112;16.280;2023-04-08T13:43:11;12.80;;;6.72;;
54787;SDS011;59598;48.112;16.280;2023-04-08T13:45:45;10.98;;;7.40;;
54787;SDS011;59598;48.112;16.280;2023-04-08T13:50:48;11.60;;;6.82;;
54787;SDS011;59598;48.112;16.280;2023-04-08T13:53:19;13.25;;;7.00;;
54787;SDS011;59598;48.112;16.280;2023-04-08T13:55:50;12.60;;;7.70;;
54787;SDS011;59598;48.112;16.280;2023-04-08T13:58:25;13.07;;;7.15;;
54787;SDS011;59598;48.112;16.280;2023-04-08T14:00:57;10.65;;;6.13;;
54787;SDS011;59598;48.112;16.280;2023-04-08T14:03:31;12.45;;;7.30;;
54787;SDS011;59598;48.112;16.280;2023-04-08T14:06:03;10.63;;;6.07;;
54787;SDS011;59598;48.112;16.280;2023-04-08T14:08:34;10.60;;;6.68;;
54787;SDS011;59598;48.112;16.280;2023-04-08T14:11:07;10.32;;;6.25;;
54787;SDS011;59598;48.112;16.280;2023-04-08T14:13:44;10.75;;;6.53;;
54787;SDS011;59598;48.112;16.280;2023-04-08T14:16:16;10.10;;;6.93;;
54787;SDS011;59598;48.112;16.280;2023-04-08T14:18:49;10.10;;;6.57;;
54787;SDS011;59598;48.112;16.280;2023-04-08T14:21:26;9.10;;;6.13;;
54787;SDS011;59598;48.112;16.280;2023-04-08T14:24:01;8.85;;;5.75;;
54787;SDS011;59598;48.112;16.280;2023-04-08T14:26:34;9.10;;;5.65;;
54787;SDS011;59598;48.112;16.280;2023-04-08T14:29:08;10.95;;;6.00;;
54787;SDS011;59598;48.112;16.280;2023-04-08T14:31:41;8.50;;;6.20;;
54787;SDS011;59598;48.112;16.280;2023-04-08T14:34:12;10.82;;;6.65;;
54787;SDS011;59598;48.112;16.280;2023-04-08T14:36:51;10.18;;;6.88;;
54787;SDS011;59598;48.112;16.280;2023-04-08T14:39:22;11.52;;;6.70;;
54787;SDS011;59598;48.112;16.280;2023-04-08T14:41:56;9.73;;;5.97;;
54787;SDS011;59598;48.112;16.280;2023-04-08T14:44:31;7.30;;;5.07;;
54787;SDS011;59598;48.112;16.280;2023-04-08T14:47:06;8.40;;;5.50;;
54787;SDS011;59598;48.112;16.280;2023-04-08T14:49:38;8.05;;;5.90;;
54787;SDS011;59598;48.112;16.280;2023-04-08T14:52:11;9.80;;;6.07;;
54787;SDS011;59598;48.112;16.280;2023-04-08T14:54:50;9.55;;;5.88;;
54787;SDS011;59598;48.112;16.280;2023-04-08T14:57:24;8.95;;;6.28;;
54787;SDS011;59598;48.112;16.280;2023-04-08T14:59:55;11.73;;;6.28;;
54787;SDS011;59598;48.112;16.280;2023-04-08T15:02:28;10.25;;;6.50;;
54787;SDS011;59598;48.112;16.280;2023-04-08T15:05:02;11.32;;;6.40;;
54787;SDS011;59598;48.112;16.280;2023-04-08T15:07:42;9.32;;;6.30;;
54787;SDS011;59598;48.112;16.280;2023-04-08T15:10:16;8.60;;;5.65;;
54787;SDS011;59598;48.112;16.280;2023-04-08T15:12:48;8.18;;;5.50;;
54787;SDS011;59598;48.112;16.280;2023-04-08T15:15:22;8.95;;;6.28;;
54787;SDS011;59598;48.112;16.280;2023-04-08T15:17:54;8.10;;;5.93;;
54787;SDS011;59598;48.112;16.280;2023-04-08T15:20:26;7.05;;;5.35;;
54787;SDS011;59598;48.112;16.280;2023-04-08T15:22:57;7.32;;;5.32;;
54787;SDS011;59598;48.112;16.280;2023-04-08T15:25:29;8.07;;;6.13;;
54787;SDS011;59598;48.112;16.280;2023-04-08T15:28:03;6.55;;;4.68;;
54787;SDS011;59598;48.112;16.280;2023-04-08T15:30:37;10.32;;;6.53;;
54787;SDS011;59598;48.112;16.280;2023-04-08T15:33:08;8.77;;;5.35;;
54787;SDS011;59598;48.112;16.280;2023-04-08T15:35:55;10.80;;;5.57;;
54787;SDS011;59598;48.112;16.280;2023-04-08T15:38:29;6.72;;;5.45;;
54787;SDS011;59598;48.112;16.280;2023-04-08T15:41:02;8.90;;;5.33;;
54787;SDS011;59598;48.112;16.280;2023-04-08T15:43:36;12.23;;;6.78;;
54787;SDS011;59598;48.112;16.280;2023-04-08T15:46:09;7.53;;;5.00;;
54787;SDS011;59598;48.112;16.280;2023-04-08T15:48:43;6.95;;;5.40;;
54787;SDS011;59598;48.112;16.280;2023-04-08T15:51:14;9.10;;;5.65;;
54787;SDS011;59598;48.112;16.280;2023-04-08T15:53:46;8.77;;;5.53;;